Time;durP1;ratioP1;P1;durP2;ratioP2;P2;SDS_P1;SDS_P2;PMS_P1;PMS_P2;Temp;Humidity;BMP_temperature;BMP_pressure;BME280_temperature;BME280_humidity;BME280_pressure;Samples;Min_cycle;Max_cycle;Signal;HPM_P1;HPM_P2
2022/12/26 00:01:55;;;;;;;1999.90;999.90;;;12.20;99.90;;;;;;5053264;28;20029;-75
2022/12/26 00:04:22;;;;;;;1999.90;999.90;;;12.10;99.90;;;;;;5053248;28;20052;-74
2022/12/26 00:06:48;;;;;;;1999.90;999.90;;;12.20;99.90;;;;;;5051682;28;20123;-74
2022/12/26 00:09:14;;;;;;;1999.90;999.90;;;12.20;99.90;;;;;;5053045;28;20117;-74
2022/12/26 00:11:39;;;;;;;1999.90;999.90;;;12.20;99.90;;;;;;5052676;28;20052;-75
2022/12/26 00:14:08;;;;;;;1999.90;999.90;;;12.20;99.90;;;;;;5052737;28;20459;-75
2022/12/26 00:16:35;;;;;;;1999.90;999.90;;;12.20;99.90;;;;;;5051744;28;20036;-75
2022/12/26 00:19:02;;;;;;;1999.90;999.90;;;12.20;99.90;;;;;;5052991;28;20066;-75
2022/12/26 00:21:28;;;;;;;1999.90;999.90;;;12.20;99.90;;;;;;5052131;28;20482;-75
2022/12/26 00:23:55;;;;;;;1999.90;999.90;;;12.20;99.90;;;;;;5052645;28;20394;-74
2022/12/26 00:26:23;;;;;;;1999.90;999.90;;;12.20;99.90;;;;;;5052052;28;20396;-74
2022/12/26 00:28:49;;;;;;;1999.90;999.90;;;12.20;99.90;;;;;;5051958;28;20029;-74
2022/12/26 00:31:21;;;;;;;1999.90;999.90;;;12.20;99.90;;;;;;5052754;28;20033;-74
2022/12/26 00:33:47;;;;;;;1999.90;999.90;;;12.20;99.90;;;;;;5051411;28;20028;-75
2022/12/26 00:36:18;;;;;;;1999.90;999.90;;;12.20;99.90;;;;;;5052575;28;20033;-75
2022/12/26 00:38:45;;;;;;;1999.90;999.90;;;12.20;99.90;;;;;;5052381;28;20480;-75
2022/12/26 00:41:12;;;;;;;1999.90;999.90;;;12.20;99.90;;;;;;5052133;28;20032;-75
2022/12/26 00:43:38;;;;;;;1999.90;999.90;;;12.20;99.90;;;;;;5052646;28;20025;-75
2022/12/26 00:46:04;;;;;;;1999.90;999.90;;;12.30;99.90;;;;;;5052263;28;20449;-75
2022/12/26 00:48:30;;;;;;;1999.90;999.90;;;12.30;99.90;;;;;;5052289;28;20455;-75
2022/12/26 00:50:56;;;;;;;1999.90;999.90;;;12.30;99.90;;;;;;5052222;28;20072;-75
2022/12/26 00:53:23;;;;;;;1999.90;999.90;;;12.30;99.90;;;;;;5052755;28;20028;-75
2022/12/26 00:55:49;;;;;;;1999.90;999.90;;;12.30;99.90;;;;;;5051929;28;20033;-75
2022/12/26 00:58:15;;;;;;;1999.90;999.90;;;12.20;99.90;;;;;;5052248;28;20072;-75
2022/12/26 01:00:40;;;;;;;1999.90;999.90;;;12.20;99.90;;;;;;5052040;28;20095;-75
2022/12/26 01:03:08;;;;;;;1999.90;999.90;;;12.20;99.90;;;;;;5052144;28;20415;-73
2022/12/26 01:05:33;;;;;;;1999.90;999.90;;;12.20;99.90;;;;;;5052456;28;20072;-74
2022/12/26 01:07:59;;;;;;;1999.90;999.90;;;12.30;99.90;;;;;;5052166;28;20059;-75
2022/12/26 01:10:26;;;;;;;1999.90;999.90;;;12.30;99.90;;;;;;5051870;28;20508;-74
2022/12/26 01:12:52;;;;;;;1999.90;999.90;;;12.30;99.90;;;;;;5051593;28;20033;-74
2022/12/26 01:15:18;;;;;;;1999.90;999.90;;;12.30;99.90;;;;;;5052115;28;20025;-73
2022/12/26 01:17:44;;;;;;;1999.90;999.90;;;12.40;99.90;;;;;;5051691;28;20025;-74
2022/12/26 01:20:10;;;;;;;1999.90;999.90;;;12.30;99.90;;;;;;5051681;28;20036;-75
2022/12/26 01:22:36;;;;;;;1999.90;999.90;;;12.40;99.90;;;;;;5049725;28;20029;-75
2022/12/26 01:25:02;;;;;;;1999.90;999.90;;;12.40;99.90;;;;;;5050194;28;20036;-74
2022/12/26 01:27:28;;;;;;;1999.90;999.90;;;12.40;99.90;;;;;;5051735;28;20504;-75
2022/12/26 01:29:54;;;;;;;1999.90;999.90;;;12.30;99.90;;;;;;5052031;28;20025;-75
2022/12/26 01:32:19;;;;;;;1999.90;999.90;;;12.30;99.90;;;;;;5051733;28;20446;-75
2022/12/26 01:34:45;;;;;;;1999.90;999.90;;;12.30;99.90;;;;;;5051694;28;20116;-74
2022/12/26 01:37:12;;;;;;;1999.90;999.90;;;12.40;99.90;;;;;;5051973;28;20106;-74
2022/12/26 01:39:38;;;;;;;1999.90;999.90;;;12.40;99.90;;;;;;5052733;28;20017;-74
2022/12/26 01:42:18;;;;;;;1999.90;999.90;;;12.30;99.90;;;;;;5055351;28;20021;-74
2022/12/26 01:45:01;;;;;;;1999.90;999.90;;;12.30;99.90;;;;;;5055501;28;20040;-75
2022/12/26 01:47:42;;;;;;;;;;;12.30;99.90;;;;;;5056399;28;20025;-75
2022/12/26 01:50:19;;;;;;;1999.90;999.90;;;12.30;99.90;;;;;;5055793;28;20284;-75
2022/12/26 01:52:47;;;;;;;1999.90;999.90;;;12.30;99.90;;;;;;5055600;28;20056;-75
2022/12/26 01:55:16;;;;;;;1999.90;999.90;;;12.20;99.90;;;;;;5055785;28;20024;-75
2022/12/26 01:57:46;;;;;;;1999.90;999.90;;;12.20;99.90;;;;;;5055479;28;20040;-74
2022/12/26 02:00:12;;;;;;;1999.90;999.90;;;12.20;99.90;;;;;;5055378;28;20021;-73
2022/12/26 02:05:34;;;;;;;1999.90;999.90;;;12.20;99.90;;;;;;5054432;28;20059;-74
2022/12/26 02:08:05;;;;;;;1999.90;999.90;;;12.20;99.90;;;;;;5055349;28;20060;-74
2022/12/26 02:10:38;;;;;;;1999.90;999.90;;;12.20;99.90;;;;;;5055239;28;20025;-74
2022/12/26 02:13:04;;;;;;;1999.90;999.90;;;12.20;99.90;;;;;;5054732;28;20548;-75
2022/12/26 02:15:30;;;;;;;1999.90;999.90;;;12.20;99.90;;;;;;5055552;28;20131;-74
2022/12/26 02:17:56;;;;;;;1999.90;999.90;;;12.20;99.90;;;;;;5055260;28;20033;-74
2022/12/26 02:20:32;;;;;;;1999.90;999.90;;;12.20;99.90;;;;;;5054591;28;20024;-74
2022/12/26 02:23:35;;;;;;;1999.90;999.90;;;12.30;99.90;;;;;;5052906;28;20024;-74
2022/12/26 02:26:20;;;;;;;1999.90;999.90;;;12.30;99.90;;;;;;5055016;28;20104;-74
2022/12/26 02:28:57;;;;;;;1999.90;999.90;;;12.30;99.90;;;;;;5055199;28;20103;-74
2022/12/26 02:31:41;;;;;;;1999.90;999.90;;;12.30;99.90;;;;;;5055031;28;20028;-74
2022/12/26 02:34:27;;;;;;;1999.90;999.90;;;12.30;99.90;;;;;;5054957;28;20028;-74
2022/12/26 02:37:27;;;;;;;1999.90;999.90;;;12.30;99.90;;;;;;5054492;28;20491;-75
2022/12/26 02:40:24;;;;;;;1999.90;999.90;;;12.40;99.90;;;;;;5054816;28;20017;-75
2022/12/26 02:43:00;;;;;;;1999.90;999.90;;;12.30;99.90;;;;;;5053966;28;20476;-75
2022/12/26 02:49:04;;;;;;;1999.90;999.90;;;12.30;99.90;;;;;;5054590;28;20059;-74
2022/12/26 03:15:07;;;;;;;1999.90;999.90;;;12.10;99.90;;;;;;5054169;28;20036;-74
2022/12/26 03:17:37;;;;;;;1999.90;999.90;;;12.10;99.90;;;;;;5054429;28;20025;-74
2022/12/26 03:20:09;;;;;;;1999.90;999.90;;;12.10;99.90;;;;;;5053917;28;20376;-74
2022/12/26 03:22:56;;;;;;;1999.90;999.90;;;12.10;99.90;;;;;;5053068;28;20033;-74
2022/12/26 03:28:27;;;;;;;1999.90;999.90;;;12.00;99.90;;;;;;5053848;28;20086;-73
2022/12/26 03:30:55;;;;;;;1999.90;999.90;;;12.00;99.90;;;;;;5053890;28;20037;-74
2022/12/26 03:36:07;;;;;;;1999.90;999.90;;;12.00;99.90;;;;;;5053755;28;20127;-75
2022/12/26 03:39:06;;;;;;;1999.90;999.90;;;11.90;99.90;;;;;;5053653;28;20048;-73
2022/12/26 04:20:21;;;;;;;1999.90;999.90;;;11.60;99.90;;;;;;5051571;28;20465;-74
2022/12/26 04:45:58;;;;;;;1999.90;999.90;;;11.60;99.90;;;;;;5051443;28;20074;-74
2022/12/26 04:51:08;;;;;;;1999.90;999.90;;;11.50;99.90;;;;;;5052433;28;20028;-74
2022/12/26 04:53:33;;;;;;;1999.90;999.90;;;11.40;99.90;;;;;;5052474;28;20037;-74
2022/12/26 04:55:59;;;;;;;1999.90;999.90;;;11.40;99.90;;;;;;5052020;28;20400;-74
2022/12/26 04:58:27;;;;;;;1999.90;999.90;;;11.40;99.90;;;;;;5050821;28;20508;-74
2022/12/26 05:09:32;;;;;;;1999.90;999.90;;;11.40;99.90;;;;;;5051903;28;20027;-74
2022/12/26 05:11:54;;;;;;;1999.90;999.90;;;11.40;99.90;;;;;;5051721;28;20074;-74
2022/12/26 05:14:19;;;;;;;1999.90;999.90;;;11.40;99.90;;;;;;5051478;28;20486;-74
2022/12/26 05:30:27;;;;;;;1999.90;999.90;;;11.30;99.90;;;;;;5051672;28;20094;-74
2022/12/26 05:35:38;;;;;;;1999.90;999.90;;;11.30;99.90;;;;;;5051647;28;20079;-74
2022/12/26 05:38:03;;;;;;;1999.90;999.90;;;11.30;99.90;;;;;;5049941;28;20025;-74
2022/12/26 05:40:29;;;;;;;1999.90;999.90;;;11.30;99.90;;;;;;5051947;28;20017;-74
2022/12/26 05:42:55;;;;;;;1999.90;999.90;;;11.20;99.90;;;;;;5050523;28;20021;-74
2022/12/26 05:45:20;;;;;;;1999.90;999.90;;;11.20;99.90;;;;;;5051688;28;20021;-74
2022/12/26 05:47:46;;;;;;;1999.90;999.90;;;11.30;99.90;;;;;;5051747;28;20028;-74
2022/12/26 05:50:11;;;;;;;1999.90;999.90;;;11.30;99.90;;;;;;5050425;28;20025;-74
2022/12/26 05:52:37;;;;;;;1999.90;999.90;;;11.30;99.90;;;;;;5051592;28;20029;-73
2022/12/26 05:55:03;;;;;;;1999.90;999.90;;;11.30;99.90;;;;;;5051760;28;20033;-74
2022/12/26 05:57:29;;;;;;;1999.90;999.90;;;11.30;99.90;;;;;;5051530;28;20032;-74
2022/12/26 05:59:54;;;;;;;1999.90;999.90;;;11.30;99.90;;;;;;5051560;28;20025;-74
2022/12/26 06:02:20;;;;;;;1999.90;999.90;;;11.30;99.90;;;;;;5051384;28;20029;-74
2022/12/26 06:04:46;;;;;;;1999.90;999.90;;;11.30;99.90;;;;;;5051298;28;20053;-73
2022/12/26 06:07:11;;;;;;;1999.90;999.90;;;11.20;99.90;;;;;;5051653;28;20427;-74
2022/12/26 06:09:37;;;;;;;1999.90;999.90;;;11.20;99.90;;;;;;5051625;28;20021;-74
2022/12/26 06:12:03;;;;;;;1999.90;999.90;;;11.20;99.90;;;;;;5051336;28;20032;-73
2022/12/26 06:14:28;;;;;;;1999.90;999.90;;;11.20;99.90;;;;;;5051321;28;20503;-74
2022/12/26 06:16:54;;;;;;;1999.90;999.90;;;11.30;99.90;;;;;;5051339;28;20496;-74
2022/12/26 06:19:19;;;;;;;1999.90;999.90;;;11.30;99.90;;;;;;5051531;28;20013;-74
2022/12/26 06:21:45;;;;;;;1999.90;999.90;;;11.30;99.90;;;;;;5051116;28;20099;-74
2022/12/26 06:24:12;;;;;;;1999.90;999.90;;;11.30;99.90;;;;;;5049832;28;20021;-74
2022/12/26 06:26:39;;;;;;;1999.90;999.90;;;11.40;99.90;;;;;;5051230;28;20024;-73
2022/12/26 06:29:04;;;;;;;1999.90;999.90;;;11.40;99.90;;;;;;5054634;28;20495;-73
2022/12/26 06:31:30;;;;;;;1999.90;999.90;;;11.40;99.90;;;;;;5055040;28;20025;-74
2022/12/26 06:34:00;;;;;;;1999.90;999.90;;;11.40;99.90;;;;;;5055340;28;20055;-73
2022/12/26 06:36:27;;;;;;;1999.90;999.90;;;11.40;99.90;;;;;;5047461;28;20062;-73
2022/12/26 06:38:54;;;;;;;1999.90;999.90;;;11.40;99.90;;;;;;5054527;28;20025;-73
2022/12/26 06:41:22;;;;;;;1999.90;999.90;;;11.40;99.90;;;;;;5054467;28;20032;-74
2022/12/26 06:43:48;;;;;;;1999.90;999.90;;;11.40;99.90;;;;;;5054394;28;20029;-74
2022/12/26 06:46:16;;;;;;;1999.90;999.90;;;11.40;99.90;;;;;;5054624;28;20472;-73
2022/12/26 06:48:42;;;;;;;1999.90;999.90;;;11.50;99.90;;;;;;5053192;28;20047;-74
2022/12/26 06:51:22;;;;;;;1999.90;999.90;;;11.50;99.90;;;;;;5054542;28;20512;-72
2022/12/26 06:53:49;;;;;;;1999.90;999.90;;;11.60;99.90;;;;;;5054725;28;20032;-74
2022/12/26 06:56:24;;;;;;;1999.90;999.90;;;11.60;99.90;;;;;;5054017;28;20024;-74
2022/12/26 06:58:54;;;;;;;1999.90;999.90;;;11.70;99.90;;;;;;5054150;28;20020;-73
2022/12/26 07:01:21;;;;;;;1999.90;999.90;;;11.70;99.90;;;;;;5054104;28;20021;-73
2022/12/26 07:03:50;;;;;;;1999.90;999.90;;;11.60;99.90;;;;;;5054276;28;20564;-73
2022/12/26 07:06:36;;;;;;;1999.90;999.90;;;11.60;99.90;;;;;;5052683;28;20098;-74
2022/12/26 07:09:13;;;;;;;1999.90;999.90;;;11.60;99.90;;;;;;5052909;28;20032;-74
2022/12/26 07:11:41;;;;;;;1999.90;999.90;;;11.60;99.90;;;;;;5050565;28;20032;-73
2022/12/26 07:14:07;;;;;;;1999.90;999.90;;;11.50;99.90;;;;;;5053653;28;20071;-74
2022/12/26 07:16:34;;;;;;;1999.90;999.90;;;11.60;99.90;;;;;;5052995;28;20032;-73
2022/12/26 07:19:00;;;;;;;1999.90;999.90;;;11.60;99.90;;;;;;5053919;28;20025;-74
2022/12/26 07:21:26;;;;;;;1999.90;999.90;;;11.70;99.90;;;;;;5054055;28;20163;-74
2022/12/26 07:23:52;;;;;;;1999.90;999.90;;;11.70;99.90;;;;;;5054133;28;20174;-73
2022/12/26 07:26:18;;;;;;;1999.90;999.90;;;11.80;99.90;;;;;;5053067;28;20074;-74
2022/12/26 07:28:43;;;;;;;1999.90;999.90;;;11.80;99.90;;;;;;5051690;28;20102;-73
2022/12/26 07:31:15;;;;;;;1999.90;999.90;;;11.90;99.90;;;;;;5052695;28;20095;-73
2022/12/26 07:33:40;;;;;;;1999.90;999.90;;;11.90;99.90;;;;;;5053345;28;20024;-74
2022/12/26 07:36:06;;;;;;;1999.90;999.90;;;11.80;99.90;;;;;;5053074;28;20025;-74
2022/12/26 07:38:32;;;;;;;1999.90;999.90;;;11.90;99.90;;;;;;5052574;28;20111;-75
2022/12/26 07:40:58;;;;;;;1999.90;999.90;;;11.90;99.90;;;;;;5052886;28;20079;-73
2022/12/26 07:43:25;;;;;;;1999.90;999.90;;;12.00;99.90;;;;;;5053477;28;20749;-73
2022/12/26 07:45:51;;;;;;;1999.90;999.90;;;12.00;99.90;;;;;;5052246;28;20025;-74
2022/12/26 07:48:17;;;;;;;1999.90;999.90;;;12.00;99.90;;;;;;5032950;28;20518;-74
2022/12/26 07:50:46;;;;;;;1999.90;999.90;;;12.00;99.90;;;;;;5037520;28;20033;-74
2022/12/26 07:53:12;;;;;;;1999.90;999.90;;;11.90;99.90;;;;;;5053631;28;20075;-73
2022/12/26 07:55:38;;;;;;;1999.90;999.90;;;12.00;99.90;;;;;;5044591;28;20052;-73
2022/12/26 07:58:04;;;;;;;1999.90;999.90;;;11.90;99.90;;;;;;5053080;28;20139;-73
2022/12/26 08:00:29;;;;;;;1999.90;999.90;;;11.90;99.90;;;;;;5052581;28;20104;-74
2022/12/26 08:02:55;;;;;;;1999.90;999.90;;;11.80;99.90;;;;;;5048665;28;20029;-75
2022/12/26 08:05:20;;;;;;;1999.90;999.90;;;11.80;99.90;;;;;;5033316;28;20053;-74
2022/12/26 08:07:47;;;;;;;1999.90;999.90;;;11.90;99.90;;;;;;5033650;28;20025;-74
2022/12/26 08:10:17;;;;;;;1999.90;999.90;;;11.80;99.90;;;;;;5033347;28;20029;-74
2022/12/26 08:12:43;;;;;;;1999.90;999.90;;;11.90;99.90;;;;;;5032715;28;20029;-74
2022/12/26 08:15:11;;;;;;;1999.90;999.90;;;11.90;99.90;;;;;;5039017;28;20025;-74
2022/12/26 08:17:37;;;;;;;1999.90;999.90;;;11.90;99.90;;;;;;5053115;28;20017;-75
2022/12/26 08:20:03;;;;;;;1999.90;999.90;;;11.90;99.90;;;;;;5052683;28;20513;-73
2022/12/26 08:22:28;;;;;;;1999.90;999.90;;;12.00;99.90;;;;;;5052452;28;20025;-72
2022/12/26 08:24:54;;;;;;;1999.90;999.90;;;12.00;99.90;;;;;;5051934;28;20085;-74
2022/12/26 08:27:19;;;;;;;1999.90;999.90;;;12.10;99.90;;;;;;5052647;28;20021;-74
2022/12/26 08:29:46;;;;;;;1999.90;999.90;;;12.20;99.90;;;;;;5052924;28;20025;-73
2022/12/26 08:32:12;;;;;;;1999.90;999.90;;;12.20;99.90;;;;;;5052691;28;20025;-75
2022/12/26 08:34:37;;;;;;;1999.90;999.90;;;12.20;99.90;;;;;;5051371;28;20100;-73
2022/12/26 08:37:03;;;;;;;1999.90;999.90;;;12.20;99.90;;;;;;5051986;28;20032;-73
2022/12/26 08:39:28;;;;;;;1999.90;999.90;;;12.20;99.90;;;;;;5052618;28;20029;-75
2022/12/26 08:41:54;;;;;;;1999.90;999.90;;;12.30;99.90;;;;;;5052174;28;20477;-73
2022/12/26 08:44:20;;;;;;;1999.90;999.90;;;12.30;99.90;;;;;;5052331;28;20021;-75
2022/12/26 08:46:45;;;;;;;1999.90;999.90;;;12.30;99.90;;;;;;5052325;28;20052;-74
2022/12/26 08:49:11;;;;;;;1999.90;999.90;;;12.30;99.90;;;;;;5051659;28;20112;-74
2022/12/26 08:51:37;;;;;;;1999.90;999.90;;;12.20;99.90;;;;;;5052972;28;20108;-75
2022/12/26 08:54:03;;;;;;;1999.90;999.90;;;12.20;99.90;;;;;;5052460;28;20444;-75
2022/12/26 08:56:29;;;;;;;1999.90;999.90;;;12.20;99.90;;;;;;5052179;28;20040;-75
2022/12/26 08:58:54;;;;;;;1999.90;999.90;;;12.20;99.90;;;;;;5051868;28;20025;-73
2022/12/26 09:01:30;;;;;;;1999.90;999.90;;;12.20;99.90;;;;;;5032221;28;20029;-73
2022/12/26 09:03:58;;;;;;;1999.90;999.90;;;12.20;99.90;;;;;;5036035;28;20049;-75
2022/12/26 09:06:25;;;;;;;1999.90;999.90;;;12.20;99.90;;;;;;5051572;28;20550;-74
2022/12/26 09:08:51;;;;;;;1999.90;999.90;;;12.10;99.90;;;;;;5051781;28;20071;-73
2022/12/26 09:11:20;;;;;;;1999.90;999.90;;;12.10;99.90;;;;;;5050775;28;20059;-74
2022/12/26 09:13:47;;;;;;;1999.90;999.90;;;12.10;99.90;;;;;;5051857;28;20029;-73
2022/12/26 09:16:22;;;;;;;1999.90;999.90;;;12.10;99.90;;;;;;5050772;28;20029;-74
2022/12/26 09:18:53;;;;;;;1999.90;999.90;;;12.10;99.90;;;;;;5051630;28;20028;-75
2022/12/26 09:21:19;;;;;;;1999.90;999.90;;;12.10;99.90;;;;;;5051548;28;20017;-74
2022/12/26 09:23:44;;;;;;;1999.90;999.90;;;12.10;99.90;;;;;;5051630;28;20052;-73
2022/12/26 09:26:13;;;;;;;1999.90;999.90;;;12.10;99.90;;;;;;5050918;28;20111;-74
2022/12/26 09:28:39;;;;;;;1999.90;999.90;;;12.10;99.90;;;;;;5050416;28;20029;-73
2022/12/26 09:31:12;;;;;;;1999.90;999.90;;;12.10;99.90;;;;;;5051361;28;20024;-73
2022/12/26 09:33:38;;;;;;;1999.90;999.90;;;12.00;99.90;;;;;;5051894;28;20480;-73
2022/12/26 09:36:11;;;;;;;1999.90;999.90;;;12.10;99.90;;;;;;5051670;28;20067;-73
2022/12/26 09:38:36;;;;;;;1999.90;999.90;;;12.10;99.90;;;;;;5051913;28;20032;-74
2022/12/26 09:41:08;;;;;;;1999.90;999.90;;;12.20;99.90;;;;;;5051113;28;20419;-73
2022/12/26 09:43:54;;;;;;;1999.90;999.90;;;12.20;99.90;;;;;;5051834;28;20036;-75
2022/12/26 09:46:26;;;;;;;1999.90;999.90;;;12.20;99.90;;;;;;5051710;28;20078;-75
2022/12/26 09:48:58;;;;;;;1999.90;999.90;;;12.20;99.90;;;;;;5051454;28;20051;-75
2022/12/26 09:51:25;;;;;;;1999.90;999.90;;;12.20;99.90;;;;;;5051735;28;20063;-76
2022/12/26 09:53:53;;;;;;;1999.90;999.90;;;12.20;99.90;;;;;;5052075;28;20033;-74
2022/12/26 09:56:21;;;;;;;1999.90;999.90;;;12.20;99.90;;;;;;5051194;28;20028;-76
2022/12/26 09:58:54;;;;;;;1999.90;999.90;;;12.20;99.90;;;;;;5051405;28;20027;-75
2022/12/26 10:01:25;;;;;;;1999.90;999.90;;;12.30;99.90;;;;;;5053547;28;20025;-74
2022/12/26 10:03:57;;;;;;;1999.90;999.90;;;12.30;99.90;;;;;;5055231;28;20149;-76
2022/12/26 10:06:43;;;;;;;1999.90;999.90;;;12.40;99.90;;;;;;5054033;28;20044;-73
2022/12/26 10:09:31;;;;;;;1999.90;999.90;;;12.40;99.90;;;;;;5054032;28;20040;-75
2022/12/26 10:12:02;;;;;;;1999.90;999.90;;;12.50;99.90;;;;;;5055083;28;20024;-76
2022/12/26 10:14:40;;;;;;;1999.90;999.90;;;12.50;99.90;;;;;;5055064;28;20039;-73
2022/12/26 10:17:27;;;;;;;1999.90;999.90;;;12.60;99.90;;;;;;5053320;28;20551;-74
2022/12/26 10:20:23;;;;;;;1999.90;999.90;;;12.60;99.90;;;;;;5054639;28;20021;-73
2022/12/26 10:23:03;;;;;;;1999.90;999.90;;;12.70;99.90;;;;;;5050357;28;20098;-74
2022/12/26 10:25:38;;;;;;;1999.90;999.90;;;12.80;99.90;;;;;;5054923;28;20057;-74
2022/12/26 10:28:09;;;;;;;1999.90;999.90;;;12.80;99.90;;;;;;5054245;28;20025;-73
2022/12/26 10:30:40;;;;;;;1999.90;999.90;;;12.90;99.90;;;;;;5054511;28;20392;-73
2022/12/26 10:33:15;;;;;;;1999.90;999.90;;;13.00;99.90;;;;;;5054808;28;20029;-73
2022/12/26 10:35:45;;;;;;;1999.90;999.90;;;13.10;99.90;;;;;;5054865;28;20100;-73
2022/12/26 10:38:35;;;;;;;1999.90;999.90;;;13.20;99.90;;;;;;5054742;28;20013;-76
2022/12/26 10:41:18;;;;;;;1999.90;999.90;;;13.30;99.90;;;;;;5054356;28;20143;-75
2022/12/26 10:43:44;;;;;;;;;;;13.40;99.90;;;;;;5055536;28;20107;-75
2022/12/26 10:46:58;;;;;;;1999.90;999.90;;;13.50;99.90;;;;;;5054603;28;19905;-74
2022/12/26 10:49:25;;;;;;;1999.90;999.90;;;13.40;99.90;;;;;;5054573;28;20048;-76
2022/12/26 10:51:53;;;;;;;1999.90;999.90;;;13.40;99.90;;;;;;5074560;28;20035;-76
2022/12/26 10:54:19;;;;;;;1999.90;999.90;;;13.30;99.90;;;;;;5068773;28;20028;-74
2022/12/26 10:56:48;;;;;;;1999.90;999.90;;;13.30;99.90;;;;;;5052711;28;20028;-73
2022/12/26 10:59:17;;;;;;;1999.90;999.90;;;13.30;99.90;;;;;;5054808;28;20083;-74
2022/12/26 11:01:46;;;;;;;1999.90;999.90;;;13.20;99.90;;;;;;5054459;28;20029;-74
2022/12/26 11:04:23;;;;;;;1999.90;999.90;;;13.20;99.90;;;;;;5052450;28;20055;-76
2022/12/26 11:06:54;;;;;;;1999.90;999.90;;;13.10;99.90;;;;;;5053903;28;20025;-75
2022/12/26 11:09:41;;;;;;;1999.90;999.90;;;13.10;99.90;;;;;;5054304;28;20100;-76
2022/12/26 11:12:20;;;;;;;1999.90;999.90;;;13.10;99.90;;;;;;5052248;28;20462;-73
2022/12/26 11:14:46;;;;;;;1999.90;999.90;;;13.20;99.90;;;;;;5052700;28;20647;-74
2022/12/26 11:17:23;;;;;;;1999.90;999.90;;;13.20;99.90;;;;;;5051188;28;20028;-75
2022/12/26 11:20:27;;;;;;;1999.90;999.90;;;13.30;99.90;;;;;;5053963;28;20017;-76
2022/12/26 11:22:53;;;;;;;1999.90;999.90;;;13.30;99.90;;;;;;5050920;28;20549;-73
2022/12/26 11:25:33;;;;;;;1999.90;999.90;;;13.40;99.90;;;;;;5053472;28;20028;-73
2022/12/26 11:28:17;;;;;;;1999.90;999.90;;;13.50;99.90;;;;;;5051573;28;20496;-76
2022/12/26 11:30:46;;;;;;;1999.90;999.90;;;13.40;99.90;;;;;;5052216;28;20054;-74
2022/12/26 11:33:22;;;;;;;1999.90;999.90;;;13.50;99.90;;;;;;5050404;28;20512;-74
2022/12/26 11:35:53;;;;;;;1999.90;999.90;;;13.50;99.90;;;;;;5052449;28;20078;-73
2022/12/26 11:38:35;;;;;;;1999.90;999.90;;;13.50;99.90;;;;;;5052906;28;20051;-74
2022/12/26 11:43:52;;;;;;;1999.90;999.90;;;13.70;99.90;;;;;;5051361;28;20044;-73
2022/12/26 11:46:19;;;;;;;1999.90;999.90;;;13.70;99.90;;;;;;5052892;28;20066;-76
2022/12/26 11:48:50;;;;;;;1999.90;999.90;;;13.70;99.90;;;;;;5051178;28;20060;-73
2022/12/26 11:51:16;;;;;;;1999.90;999.90;;;13.60;99.90;;;;;;5052655;28;20025;-74
2022/12/26 11:53:41;;;;;;;1999.90;999.90;;;13.60;99.90;;;;;;5052684;28;20492;-75
2022/12/26 11:56:08;;;;;;;1999.90;999.90;;;13.60;99.90;;;;;;5052310;28;20060;-76
2022/12/26 11:58:34;;;;;;;1999.90;999.90;;;13.60;99.90;;;;;;5052215;28;20025;-75
2022/12/26 12:01:00;;;;;;;1999.90;999.90;;;13.60;99.90;;;;;;5052102;28;20021;-74
2022/12/26 12:03:30;;;;;;;1999.90;999.90;;;13.70;99.90;;;;;;5051200;28;20377;-74
2022/12/26 12:06:33;;;;;;;1999.90;999.90;;;13.80;99.90;;;;;;5052604;28;20095;-76
2022/12/26 12:09:31;;;;;;;1999.90;999.90;;;13.70;99.90;;;;;;5051348;28;20025;-75
2022/12/26 12:12:25;;;;;;;1999.90;999.90;;;13.80;99.90;;;;;;5050576;28;20059;-76
2022/12/26 12:15:20;;;;;;;1999.90;999.90;;;13.80;99.90;;;;;;5051784;28;20046;-75
2022/12/26 12:18:09;;;;;;;1999.90;999.90;;;13.90;99.90;;;;;;5051998;28;20025;-74
2022/12/26 12:20:46;;;;;;;1999.90;999.90;;;13.90;99.90;;;;;;5051339;28;20112;-76
2022/12/26 12:23:18;;;;;;;1999.90;999.90;;;14.00;99.90;;;;;;5050734;28;20062;-74
2022/12/26 12:25:54;;;;;;;1999.90;999.90;;;14.00;99.90;;;;;;5050759;28;20563;-76
2022/12/26 12:28:39;;;;;;;1999.90;999.90;;;13.90;99.90;;;;;;5051021;28;20070;-76
2022/12/26 12:31:37;;;;;;;1999.90;999.90;;;14.00;99.90;;;;;;5051510;28;20033;-74
2022/12/26 12:34:21;;;;;;;1999.90;999.90;;;14.10;99.90;;;;;;5050169;28;20386;-76
2022/12/26 12:37:01;;;;;;;1999.90;999.90;;;14.00;99.90;;;;;;5051508;28;20091;-74
2022/12/26 12:39:33;;;;;;;1999.90;999.90;;;14.10;99.90;;;;;;5052165;28;20365;-74
2022/12/26 12:42:27;;;;;;;1999.90;999.90;;;14.10;99.90;;;;;;5050362;28;20099;-77
2022/12/26 12:45:42;;;;;;;1999.90;999.90;;;14.00;99.90;;;;;;5050380;28;20103;-76
2022/12/26 12:48:32;;;;;;;1999.90;999.90;;;14.00;99.90;;;;;;5031259;28;20038;-76
2022/12/26 12:51:28;;;;;;;1999.90;999.90;;;14.10;99.90;;;;;;5050856;28;20543;-74
2022/12/26 12:54:12;;;;;;;1999.90;999.90;;;14.30;99.90;;;;;;5049817;28;20052;-74
2022/12/26 12:56:58;;;;;;;1999.90;999.90;;;14.20;99.90;;;;;;5050345;28;20100;-74
2022/12/26 12:59:51;;;;;;;1999.90;999.90;;;14.30;99.90;;;;;;5049613;28;20566;-76
2022/12/26 13:02:30;;;;;;;1999.90;999.90;;;14.20;99.90;;;;;;5050909;28;20029;-75
2022/12/26 13:05:12;;;;;;;1999.90;999.90;;;14.30;99.90;;;;;;5048566;28;20056;-74
2022/12/26 13:07:40;;;;;;;1999.90;999.90;;;14.30;99.90;;;;;;5049145;28;20021;-74
2022/12/26 13:10:19;;;;;;;1999.90;999.90;;;14.20;99.90;;;;;;5051325;28;20029;-76
2022/12/26 13:12:48;;;;;;;1999.90;999.90;;;14.20;99.90;;;;;;5049806;28;20603;-75
2022/12/26 13:15:27;;;;;;;1999.90;999.90;;;14.00;99.90;;;;;;5050477;28;20033;-76
2022/12/26 13:18:01;;;;;;;1999.90;999.90;;;14.10;99.90;;;;;;5050906;28;20025;-74
2022/12/26 13:20:39;;;;;;;1999.90;999.90;;;14.10;99.90;;;;;;5051452;28;20515;-74
2022/12/26 13:26:24;;;;;;;1999.90;999.90;;;13.80;99.90;;;;;;5049130;28;20503;-75
2022/12/26 13:29:05;;;;;;;1999.90;999.90;;;13.70;99.90;;;;;;5046697;28;20411;-74
2022/12/26 13:31:35;;;;;;;1999.90;999.90;;;13.50;99.90;;;;;;5051996;28;20078;-73
2022/12/26 13:34:03;;;;;;;1999.90;999.90;;;13.40;99.90;;;;;;5052151;28;20028;-74
2022/12/26 13:36:46;;;;;;;1999.90;999.90;;;13.50;99.90;;;;;;5053872;28;20476;-76
2022/12/26 13:39:12;;;;;;;1999.90;999.90;;;14.00;99.90;;;;;;5056350;28;20025;-74
2022/12/26 13:44:35;;;;;;;1999.90;999.90;;;13.80;99.90;;;;;;5055850;28;20039;-74
2022/12/26 13:47:00;;;;;;;1999.90;999.90;;;13.60;99.90;;;;;;5055759;28;20036;-74
2022/12/26 13:49:38;;;;;;;1999.90;999.90;;;13.60;99.90;;;;;;5056006;28;20033;-76
2022/12/26 13:52:10;;;;;;;1999.90;999.90;;;14.20;99.90;;;;;;5054915;28;20029;-76
2022/12/26 13:55:05;;;;;;;1999.90;999.90;;;14.60;99.90;;;;;;5055734;28;20025;-76
2022/12/26 13:57:38;;;;;;;1999.90;999.90;;;15.00;99.90;;;;;;5054875;28;20056;-74
2022/12/26 14:00:17;;;;;;;1999.90;999.90;;;15.40;99.90;;;;;;5055850;28;20456;-74
2022/12/26 14:03:05;;;;;;;1999.90;999.90;;;15.40;99.90;;;;;;5055328;28;20104;-75
2022/12/26 14:05:50;;;;;;;1999.90;999.90;;;15.50;99.90;;;;;;5055384;28;20530;-74
2022/12/26 14:08:32;;;;;;;1999.90;999.90;;;15.20;99.90;;;;;;5055456;28;20520;-74
2022/12/26 14:11:09;;;;;;;1999.90;999.90;;;15.50;99.90;;;;;;5053811;28;20105;-74
2022/12/26 14:14:06;;;;;;;1999.90;999.90;;;15.40;99.90;;;;;;5055263;28;20019;-74
2022/12/26 14:16:40;;;;;;;1999.90;999.90;;;15.40;99.90;;;;;;5055073;28;20122;-76
2022/12/26 14:19:28;;;;;;;1999.90;999.90;;;15.10;99.90;;;;;;5055262;28;20421;-76
2022/12/26 14:22:05;;;;;;;1999.90;999.90;;;14.70;99.90;;;;;;5054966;28;20021;-74
2022/12/26 14:24:56;;;;;;;1999.90;999.90;;;14.90;99.90;;;;;;5055069;28;20024;-76
2022/12/26 14:27:27;;;;;;;1999.90;999.90;;;15.10;99.90;;;;;;5054076;28;20127;-74
2022/12/26 14:30:17;;;;;;;1999.90;999.90;;;15.10;99.90;;;;;;5054380;28;20021;-76
2022/12/26 14:33:04;;;;;;;1999.90;999.90;;;15.40;99.90;;;;;;5054829;28;20025;-76
2022/12/26 14:35:43;;;;;;;1999.90;999.90;;;15.60;99.90;;;;;;5041488;28;20503;-74
2022/12/26 14:38:44;;;;;;;1999.90;999.90;;;15.40;99.90;;;;;;5045811;28;20362;-75
2022/12/26 14:44:19;;;;;;;1999.90;999.90;;;15.40;99.90;;;;;;5053335;28;20040;-76